createdAt,value
2023-12-21T00:01:41.894Z,74.40
2023-12-21T00:03:43.827Z,73.90
2023-12-21T00:05:45.722Z,73.60
2023-12-21T00:07:47.844Z,73.70
2023-12-21T00:09:49.839Z,74.00
2023-12-21T00:11:51.633Z,73.70
2023-12-21T00:13:53.438Z,73.60
2023-12-21T00:15:55.428Z,73.70
2023-12-21T00:17:57.254Z,73.50
2023-12-21T00:19:59.213Z,73.70
2023-12-21T00:22:01.011Z,73.10
2023-12-21T00:24:02.829Z,73.30
2023-12-21T00:26:04.698Z,73.40
2023-12-21T00:28:06.724Z,73.50
2023-12-21T00:30:09.372Z,73.60
2023-12-21T00:32:13.526Z,73.50
2023-12-21T00:34:15.618Z,73.00
2023-12-21T00:36:18.076Z,73.20
2023-12-21T00:38:19.905Z,73.30
2023-12-21T00:40:21.734Z,73.60
2023-12-21T00:42:24.776Z,74.10
2023-12-21T00:44:26.512Z,74.10
2023-12-21T00:46:28.376Z,74.40
2023-12-21T00:48:30.310Z,74.80
2023-12-21T00:50:32.097Z,74.90
2023-12-21T00:52:34.105Z,75.10
2023-12-21T00:54:35.944Z,75.10
2023-12-21T00:56:37.737Z,75.00
2023-12-21T00:58:39.642Z,75.30
2023-12-21T01:00:41.521Z,75.00
2023-12-21T01:02:43.403Z,75.30
2023-12-21T01:04:45.338Z,75.30
2023-12-21T01:06:47.161Z,75.40
2023-12-21T01:08:48.920Z,75.20
2023-12-21T01:10:50.691Z,75.50
2023-12-21T01:12:53.134Z,75.60
2023-12-21T01:14:55.033Z,75.70
2023-12-21T01:16:56.918Z,75.40
2023-12-21T01:18:59.807Z,75.50
2023-12-21T01:21:01.629Z,75.50
2023-12-21T01:23:03.479Z,75.50
2023-12-21T01:25:05.588Z,75.40
2023-12-21T01:27:09.140Z,74.90
2023-12-21T01:29:14.973Z,75.20
2023-12-21T01:31:16.774Z,75.50
2023-12-21T01:33:18.692Z,75.60
2023-12-21T01:35:21.289Z,75.50
2023-12-21T01:37:23.130Z,75.20
2023-12-21T01:39:24.921Z,75.00
2023-12-21T01:41:26.822Z,75.10
2023-12-21T01:43:28.622Z,74.90
2023-12-21T01:45:30.372Z,75.10
2023-12-21T01:47:33.145Z,75.00
2023-12-21T01:49:35.686Z,75.10
2023-12-21T01:51:37.838Z,75.10
2023-12-21T01:53:40.776Z,75.00
2023-12-21T01:55:44.088Z,75.30
2023-12-21T01:57:46.451Z,75.40
2023-12-21T01:59:48.824Z,75.40
2023-12-21T02:01:50.837Z,75.50
2023-12-21T02:03:52.860Z,75.60
2023-12-21T02:05:54.803Z,75.80
2023-12-21T02:07:56.720Z,76.00
2023-12-21T02:09:58.618Z,76.00
2023-12-21T02:12:00.396Z,75.80
2023-12-21T02:14:02.381Z,76.20
2023-12-21T02:16:12.737Z,76.20
2023-12-21T02:18:15.243Z,76.50
2023-12-21T02:20:18.039Z,77.20
2023-12-21T02:22:22.093Z,77.80
2023-12-21T02:24:24.148Z,78.90
2023-12-21T02:26:26.574Z,79.80
2023-12-21T02:28:28.605Z,80.40
2023-12-21T02:30:30.467Z,81.00
2023-12-21T02:32:32.836Z,81.80
2023-12-21T02:34:34.987Z,82.30
2023-12-21T02:36:36.850Z,82.90
2023-12-21T02:38:39.893Z,83.20
2023-12-21T02:40:41.748Z,83.60
2023-12-21T02:42:43.762Z,84.20
2023-12-21T02:44:45.549Z,84.50
2023-12-21T02:46:47.389Z,84.60
2023-12-21T02:48:49.249Z,84.60
2023-12-21T02:50:51.069Z,84.80
2023-12-21T02:52:52.889Z,85.30
2023-12-21T02:54:54.788Z,85.50
2023-12-21T02:56:57.082Z,85.00
2023-12-21T02:58:58.902Z,85.00
2023-12-21T03:01:02.391Z,85.00
2023-12-21T03:03:04.475Z,85.00
2023-12-21T03:05:07.096Z,85.20
2023-12-21T03:07:08.951Z,85.00
2023-12-21T03:09:10.869Z,85.20
2023-12-21T03:11:13.250Z,85.00
2023-12-21T03:13:15.136Z,85.20
2023-12-21T03:15:16.924Z,85.40
2023-12-21T03:17:18.739Z,85.60
2023-12-21T03:19:20.583Z,85.90
2023-12-21T03:21:22.461Z,86.50
2023-12-21T03:23:24.485Z,87.00
2023-12-21T03:25:26.406Z,87.30
2023-12-21T03:27:28.239Z,87.60
2023-12-21T03:29:30.056Z,87.90
2023-12-21T03:31:31.845Z,88.10
2023-12-21T03:33:33.715Z,88.20
2023-12-21T03:35:35.505Z,88.30
2023-12-21T03:37:39.344Z,88.50
2023-12-21T03:39:41.240Z,88.90
2023-12-21T03:41:43.019Z,88.80
2023-12-21T03:43:44.955Z,88.70
2023-12-21T03:45:46.897Z,88.50
2023-12-21T03:47:52.081Z,88.60
2023-12-21T03:49:54.033Z,88.70
2023-12-21T03:51:57.197Z,88.40
2023-12-21T03:53:58.995Z,88.60
2023-12-21T03:56:01.124Z,88.40
2023-12-21T03:58:02.934Z,87.90
2023-12-21T04:00:07.120Z,87.70
2023-12-21T04:02:08.964Z,87.50
2023-12-21T04:04:10.785Z,87.70
2023-12-21T04:06:12.565Z,87.50
2023-12-21T04:08:16.200Z,87.80
2023-12-21T04:10:18.044Z,87.50
2023-12-21T04:12:19.844Z,86.90
2023-12-21T04:14:21.656Z,86.60
2023-12-21T04:16:23.559Z,86.60
2023-12-21T04:18:25.568Z,85.90
2023-12-21T04:20:27.414Z,85.90
2023-12-21T04:22:29.225Z,85.40
2023-12-21T04:24:31.033Z,84.70
2023-12-21T04:26:32.844Z,84.60
2023-12-21T04:28:34.790Z,84.20
2023-12-21T04:30:36.818Z,84.10
2023-12-21T04:32:39.243Z,84.10
2023-12-21T04:34:41.085Z,84.00
2023-12-21T04:36:42.890Z,83.70
2023-12-21T04:38:44.768Z,83.30
2023-12-21T04:40:46.639Z,82.90
2023-12-21T04:42:53.275Z,82.70
2023-12-21T04:44:55.061Z,82.50
2023-12-21T04:46:56.830Z,82.30
2023-12-21T04:48:58.719Z,82.40
2023-12-21T04:51:01.967Z,82.70
2023-12-21T04:53:03.990Z,82.30
2023-12-21T04:55:06.513Z,82.20
2023-12-21T04:57:08.391Z,82.10
2023-12-21T04:59:10.700Z,81.80
2023-12-21T05:01:12.668Z,81.30
2023-12-21T05:03:17.636Z,81.20
2023-12-21T05:05:20.866Z,81.30
2023-12-21T05:07:22.739Z,80.80
2023-12-21T05:09:24.578Z,80.70
2023-12-21T05:11:26.636Z,81.00
2023-12-21T05:13:28.451Z,80.60
2023-12-21T05:15:30.275Z,80.40
2023-12-21T05:17:32.196Z,80.50
2023-12-21T05:19:34.007Z,80.10
2023-12-21T05:21:35.862Z,79.90
2023-12-21T05:23:37.798Z,80.10
2023-12-21T05:25:39.706Z,80.30
2023-12-21T05:27:41.602Z,80.10
2023-12-21T05:29:43.415Z,80.00
2023-12-21T05:31:45.295Z,80.10
2023-12-21T05:33:47.092Z,80.20
2023-12-21T05:35:48.820Z,80.10
2023-12-21T05:37:50.608Z,80.10
2023-12-21T05:39:52.389Z,80.40
2023-12-21T05:41:54.598Z,81.10
2023-12-21T05:43:56.702Z,81.40
2023-12-21T05:45:58.600Z,81.10
2023-12-21T05:48:00.639Z,81.20
2023-12-21T05:50:03.257Z,81.20
2023-12-21T05:52:05.355Z,81.50
2023-12-21T05:54:07.370Z,81.90
2023-12-21T05:56:09.152Z,81.90
2023-12-21T05:58:10.985Z,82.00
2023-12-21T06:00:13.723Z,81.90
2023-12-21T06:02:15.492Z,81.20
2023-12-21T06:04:17.456Z,81.40
2023-12-21T06:06:19.397Z,81.60
2023-12-21T06:08:21.307Z,81.50
2023-12-21T06:10:23.108Z,81.40
2023-12-21T06:12:24.940Z,81.50
2023-12-21T06:14:26.700Z,80.90
2023-12-21T06:16:28.742Z,80.70
2023-12-21T06:18:30.886Z,80.50
2023-12-21T06:20:36.176Z,80.30
2023-12-21T06:22:38.044Z,79.80
2023-12-21T06:24:39.954Z,79.80
2023-12-21T06:26:42.661Z,79.80
2023-12-21T06:28:44.604Z,79.80
2023-12-21T06:30:46.788Z,79.60
2023-12-21T06:32:48.810Z,79.80
2023-12-21T06:34:50.854Z,79.60
2023-12-21T06:36:52.880Z,79.40
2023-12-21T06:38:54.688Z,78.90
2023-12-21T06:40:56.657Z,79.10
2023-12-21T06:42:58.447Z,79.00
2023-12-21T06:45:00.442Z,79.00
2023-12-21T06:47:02.202Z,79.10
2023-12-21T06:49:04.238Z,78.90
2023-12-21T06:51:06.349Z,78.70
2023-12-21T06:53:08.152Z,79.00
2023-12-21T06:55:10.174Z,79.00
2023-12-21T06:57:12.055Z,78.80
2023-12-21T06:59:13.996Z,79.00
2023-12-21T07:01:15.804Z,78.80
2023-12-21T07:03:17.641Z,79.00
2023-12-21T07:05:19.491Z,78.90
2023-12-21T07:07:21.444Z,79.00
2023-12-21T07:09:23.871Z,79.10
2023-12-21T07:11:25.751Z,78.60
2023-12-21T07:13:27.614Z,78.70
2023-12-21T07:15:29.383Z,78.40
2023-12-21T07:17:31.272Z,78.30
2023-12-21T07:19:33.166Z,78.40
2023-12-21T07:21:35.016Z,78.60
2023-12-21T07:23:37.067Z,78.60
2023-12-21T07:25:39.112Z,78.40
2023-12-21T07:27:40.916Z,78.40
2023-12-21T07:29:46.050Z,78.80
2023-12-21T07:31:47.888Z,78.70
2023-12-21T07:33:49.900Z,78.20
2023-12-21T07:35:51.798Z,77.90
2023-12-21T07:37:53.634Z,78.10
2023-12-21T07:39:55.499Z,77.70
2023-12-21T07:41:57.325Z,77.50
2023-12-21T07:43:59.100Z,77.70
2023-12-21T07:46:00.974Z,77.60
2023-12-21T07:48:03.164Z,77.30
2023-12-21T07:50:05.445Z,77.60
2023-12-21T07:52:07.407Z,77.50
2023-12-21T07:54:09.281Z,77.20
2023-12-21T07:56:11.250Z,77.30
2023-12-21T07:58:14.280Z,77.20
2023-12-21T08:00:16.655Z,77.40
2023-12-21T08:02:18.819Z,77.20
2023-12-21T08:04:21.080Z,77.40
2023-12-21T08:06:23.468Z,77.00
2023-12-21T08:08:25.386Z,77.00
2023-12-21T08:10:27.361Z,76.90
2023-12-21T08:12:29.165Z,76.70
2023-12-21T08:14:33.029Z,76.30
2023-12-21T08:16:35.033Z,76.00
2023-12-21T08:18:36.802Z,76.70
2023-12-21T08:20:42.537Z,76.60
2023-12-21T08:22:46.135Z,76.60
2023-12-21T08:24:48.273Z,76.40
2023-12-21T08:26:50.125Z,76.40
2023-12-21T08:28:51.984Z,76.20
2023-12-21T08:30:54.639Z,76.00
2023-12-21T08:32:56.503Z,76.30
2023-12-21T08:34:58.935Z,76.10
2023-12-21T08:37:00.756Z,76.10
2023-12-21T08:39:02.964Z,76.00
2023-12-21T08:41:04.955Z,75.50
2023-12-21T08:43:06.858Z,75.40
2023-12-21T08:45:09.353Z,75.40
2023-12-21T08:47:11.209Z,75.50
2023-12-21T08:49:14.173Z,75.70
2023-12-21T08:51:19.652Z,75.80
2023-12-21T08:53:21.855Z,75.40
2023-12-21T08:55:23.788Z,75.40
2023-12-21T08:57:25.821Z,75.10
2023-12-21T08:59:27.649Z,75.40
2023-12-21T09:01:33.485Z,75.10
2023-12-21T09:03:35.408Z,74.90
2023-12-21T09:05:37.208Z,75.50
2023-12-21T09:07:39.358Z,75.70
2023-12-21T09:09:42.237Z,75.50
2023-12-21T09:11:44.031Z,75.20
2023-12-21T09:13:45.966Z,75.20
2023-12-21T09:15:47.801Z,75.50
2023-12-21T09:17:49.606Z,74.30
2023-12-21T09:19:51.448Z,74.20
2023-12-21T09:21:53.297Z,73.90
2023-12-21T09:23:55.176Z,73.70
2023-12-21T09:25:57.081Z,74.10
2023-12-21T09:27:59.051Z,74.00
2023-12-21T09:30:01.163Z,73.60
2023-12-21T09:32:03.112Z,73.10
2023-12-21T09:34:05.638Z,73.20
2023-12-21T09:36:10.754Z,73.40
2023-12-21T09:38:12.785Z,72.90
2023-12-21T09:40:14.841Z,73.00
2023-12-21T09:42:16.976Z,72.70
2023-12-21T09:44:21.461Z,72.30
2023-12-21T09:46:27.059Z,72.50
2023-12-21T09:48:30.926Z,72.60
2023-12-21T09:50:32.698Z,72.30
2023-12-21T09:52:38.239Z,71.90
2023-12-21T09:54:42.703Z,72.10
2023-12-21T09:56:47.693Z,72.30
2023-12-21T09:58:49.896Z,72.00
2023-12-21T10:00:51.908Z,71.90
2023-12-21T10:02:54.381Z,72.10
2023-12-21T10:04:58.321Z,72.40
2023-12-21T10:07:00.475Z,72.40
2023-12-21T10:09:05.797Z,72.50
2023-12-21T10:11:07.897Z,72.10
2023-12-21T10:13:09.758Z,72.00
2023-12-21T10:15:12.542Z,72.00
2023-12-21T10:17:14.758Z,71.80
2023-12-21T10:19:17.497Z,72.10
2023-12-21T10:21:21.153Z,72.30
2023-12-21T10:23:23.084Z,72.70
2023-12-21T10:25:26.959Z,72.30
2023-12-21T10:27:30.545Z,72.20
2023-12-21T10:29:33.284Z,72.50
2023-12-21T10:31:34.930Z,72.20
2023-12-21T10:33:37.025Z,72.30
2023-12-21T10:35:39.214Z,72.80
2023-12-21T10:37:41.575Z,72.90
2023-12-21T10:39:43.678Z,72.60
2023-12-21T10:41:46.523Z,72.30
2023-12-21T10:43:48.627Z,72.30
2023-12-21T10:45:50.518Z,72.70
2023-12-21T10:47:59.277Z,72.30
2023-12-21T10:50:01.196Z,72.10
2023-12-21T10:52:04.780Z,72.30
2023-12-21T10:54:10.995Z,72.10
2023-12-21T10:56:14.759Z,72.30
2023-12-21T10:58:17.706Z,72.30
2023-12-21T11:00:22.725Z,72.10
2023-12-21T11:02:26.279Z,72.20
2023-12-21T11:04:30.013Z,72.30
2023-12-21T11:06:33.063Z,71.90
2023-12-21T11:08:37.389Z,72.10
2023-12-21T11:10:39.870Z,72.30
2023-12-21T11:12:41.678Z,71.80
2023-12-21T11:14:43.709Z,71.80
2023-12-21T11:16:53.052Z,71.80
2023-12-21T11:18:58.025Z,71.90
2023-12-21T11:21:01.893Z,72.30
2023-12-21T11:23:07.002Z,72.00
2023-12-21T11:25:13.203Z,72.00
2023-12-21T11:27:15.161Z,71.60
2023-12-21T11:29:24.105Z,71.40
2023-12-21T11:31:39.908Z,71.40
2023-12-21T11:33:42.784Z,71.20
2023-12-21T11:35:54.612Z,71.00
2023-12-21T11:37:56.771Z,70.70
2023-12-21T11:40:05.670Z,70.90
2023-12-21T11:42:09.977Z,70.70
2023-12-21T11:44:13.472Z,70.50
2023-12-21T11:46:16.582Z,70.50
2023-12-21T11:48:20.623Z,70.80
2023-12-21T11:50:24.585Z,70.50
2023-12-21T11:52:26.580Z,70.60
2023-12-21T11:54:28.480Z,70.70
2023-12-21T11:56:37.274Z,70.80
2023-12-21T11:58:41.388Z,70.90
2023-12-21T12:00:45.464Z,71.40
2023-12-21T12:02:51.205Z,71.40
2023-12-21T12:04:54.490Z,71.10
2023-12-21T12:06:57.941Z,71.20
2023-12-21T12:08:59.781Z,71.20
2023-12-21T12:11:01.808Z,71.50
2023-12-21T12:13:04.794Z,71.50
2023-12-21T12:15:07.484Z,71.60
2023-12-21T12:17:10.532Z,71.70
2023-12-21T12:19:13.682Z,71.30
2023-12-21T12:21:15.647Z,71.20
2023-12-21T12:23:18.076Z,71.40
2023-12-21T12:25:20.284Z,71.30
2023-12-21T12:27:22.208Z,71.30
2023-12-21T12:29:24.126Z,71.40
2023-12-21T12:31:26.039Z,71.50
2023-12-21T12:33:28.173Z,71.80
2023-12-21T12:35:33.976Z,72.10
2023-12-21T12:37:36.784Z,71.90
2023-12-21T12:39:39.071Z,72.00
2023-12-21T12:41:41.001Z,72.20
2023-12-21T12:43:42.808Z,72.30
2023-12-21T12:45:44.612Z,72.10
2023-12-21T12:47:46.728Z,72.30
2023-12-21T12:49:48.744Z,72.20
2023-12-21T12:51:53.270Z,72.20
2023-12-21T12:53:55.114Z,72.30
2023-12-21T12:55:57.307Z,72.30
2023-12-21T12:57:59.229Z,72.20
2023-12-21T13:00:01.034Z,72.20
2023-12-21T13:02:03.008Z,72.00
2023-12-21T13:04:05.604Z,71.80
2023-12-21T13:06:11.804Z,71.90
2023-12-21T13:08:20.138Z,71.80
2023-12-21T13:10:23.733Z,72.00
2023-12-21T13:12:25.579Z,71.80
2023-12-21T13:14:27.528Z,71.70
2023-12-21T13:16:29.278Z,71.70
2023-12-21T13:18:31.107Z,71.70
2023-12-21T13:20:32.888Z,71.70
2023-12-21T13:22:34.763Z,71.90
2023-12-21T13:24:36.657Z,72.10
2023-12-21T13:26:38.428Z,72.00
2023-12-21T13:28:43.912Z,72.00
2023-12-21T13:30:47.202Z,72.10
2023-12-21T13:32:49.102Z,72.20
2023-12-21T13:34:51.193Z,72.40
2023-12-21T13:36:54.750Z,73.00
2023-12-21T13:38:57.496Z,74.50
2023-12-21T13:40:59.254Z,75.60
2023-12-21T13:43:02.067Z,75.60
2023-12-21T13:45:05.340Z,75.40
2023-12-21T13:47:07.325Z,76.10
2023-12-21T13:49:09.182Z,76.10
2023-12-21T13:51:11.755Z,75.50
2023-12-21T13:53:13.485Z,75.50
2023-12-21T13:55:15.501Z,75.50
2023-12-21T13:57:17.990Z,75.70
2023-12-21T13:59:19.865Z,75.50
2023-12-21T14:01:23.998Z,75.20
2023-12-21T14:03:26.001Z,75.00
2023-12-21T14:05:28.883Z,75.00
2023-12-21T14:07:30.867Z,74.90
2023-12-21T14:09:32.754Z,75.30
2023-12-21T14:11:34.676Z,75.30
2023-12-21T14:13:36.504Z,75.40
2023-12-21T14:15:39.585Z,75.00
2023-12-21T14:17:43.408Z,75.00
2023-12-21T14:19:45.590Z,75.30
2023-12-21T14:21:47.416Z,75.90
2023-12-21T14:23:49.211Z,76.60
2023-12-21T14:25:52.038Z,77.00
2023-12-21T14:27:53.929Z,76.60
2023-12-21T14:29:55.967Z,76.80
2023-12-21T14:31:57.772Z,76.50
2023-12-21T14:33:59.603Z,76.60
2023-12-21T14:36:02.158Z,76.50
2023-12-21T14:38:04.480Z,76.80
2023-12-21T14:40:07.248Z,76.90
2023-12-21T14:42:09.092Z,76.60
2023-12-21T14:44:12.215Z,76.60
2023-12-21T14:46:14.082Z,76.40
2023-12-21T14:48:17.950Z,76.70
2023-12-21T14:50:20.640Z,77.90
2023-12-21T14:52:22.443Z,79.60
2023-12-21T14:54:24.289Z,81.60
2023-12-21T14:56:26.819Z,83.20
2023-12-21T14:58:29.593Z,82.90
2023-12-21T15:00:34.341Z,83.50
2023-12-21T15:02:38.059Z,84.70
2023-12-21T15:04:39.918Z,84.40
2023-12-21T15:06:41.848Z,85.10
2023-12-21T15:08:43.987Z,84.80
2023-12-21T15:10:45.809Z,85.40
2023-12-21T15:12:47.629Z,85.40
2023-12-21T15:14:49.418Z,85.00
2023-12-21T15:16:51.299Z,85.20
2023-12-21T15:18:53.173Z,85.30
2023-12-21T15:20:54.993Z,85.70
2023-12-21T15:22:57.259Z,85.20
2023-12-21T15:24:59.113Z,85.10
2023-12-21T15:27:00.909Z,84.90
2023-12-21T15:29:06.663Z,85.60
2023-12-21T15:31:08.534Z,85.20
2023-12-21T15:33:10.322Z,85.30
2023-12-21T15:35:12.489Z,85.60
2023-12-21T15:37:14.365Z,86.10
2023-12-21T15:39:19.092Z,86.10
2023-12-21T15:41:22.473Z,86.10
2023-12-21T15:43:24.286Z,86.30
2023-12-21T15:45:26.040Z,86.20
2023-12-21T15:47:29.320Z,86.50
2023-12-21T15:49:31.189Z,86.00
2023-12-21T15:51:33.043Z,86.20
2023-12-21T15:53:34.860Z,86.80
2023-12-21T15:55:36.754Z,86.80
2023-12-21T15:57:38.792Z,87.10
2023-12-21T15:59:40.613Z,86.60
2023-12-21T16:01:42.414Z,85.80
2023-12-21T16:03:44.263Z,86.10
2023-12-21T16:05:46.170Z,85.80
2023-12-21T16:07:48.037Z,86.10
2023-12-21T16:09:52.007Z,85.80
2023-12-21T16:11:54.807Z,85.70
2023-12-21T16:13:56.860Z,85.70
2023-12-21T16:15:58.793Z,85.30
2023-12-21T16:18:01.376Z,85.10
2023-12-21T16:20:04.681Z,85.10
2023-12-21T16:22:09.503Z,84.90
2023-12-21T16:24:12.812Z,85.20
2023-12-21T16:26:14.716Z,85.00
2023-12-21T16:28:16.529Z,85.00
2023-12-21T16:30:19.423Z,84.10
2023-12-21T16:32:21.338Z,83.70
2023-12-21T16:34:23.826Z,83.60
2023-12-21T16:36:25.634Z,83.80
2023-12-21T16:38:32.741Z,83.50
2023-12-21T16:40:34.580Z,83.20
2023-12-21T16:42:36.381Z,83.10
2023-12-21T16:44:38.190Z,83.20
2023-12-21T16:46:40.059Z,83.30
2023-12-21T16:48:42.170Z,83.00
2023-12-21T16:50:50.269Z,83.10
2023-12-21T16:52:53.783Z,82.60
2023-12-21T16:54:55.596Z,82.70
2023-12-21T16:56:57.992Z,82.80
2023-12-21T16:58:59.876Z,82.90
2023-12-21T17:01:01.794Z,82.90
2023-12-21T17:03:03.821Z,82.50
2023-12-21T17:05:06.166Z,82.40
2023-12-21T17:07:08.933Z,82.10
2023-12-21T17:09:10.741Z,82.00
2023-12-21T17:11:12.488Z,82.00
2023-12-21T17:13:14.305Z,81.50
2023-12-21T17:15:16.178Z,81.70
2023-12-21T17:17:17.987Z,81.60
2023-12-21T17:19:19.945Z,81.70
2023-12-21T17:21:22.194Z,81.70
2023-12-21T17:23:24.068Z,81.30
2023-12-21T17:25:25.862Z,81.20
2023-12-21T17:27:27.640Z,81.30
2023-12-21T17:29:29.371Z,80.90
2023-12-21T17:31:31.397Z,81.10
2023-12-21T17:33:33.629Z,80.70
2023-12-21T17:35:35.481Z,80.80
2023-12-21T17:37:37.550Z,80.90
2023-12-21T17:39:39.908Z,80.40
2023-12-21T17:41:41.700Z,80.10
2023-12-21T17:43:45.699Z,79.40
2023-12-21T17:45:47.787Z,79.80
2023-12-21T17:47:50.684Z,79.70
2023-12-21T17:49:52.830Z,79.70
2023-12-21T17:51:54.639Z,79.10
2023-12-21T17:53:57.326Z,79.30
2023-12-21T17:56:00.214Z,79.20
2023-12-21T17:58:02.138Z,78.70
2023-12-21T18:00:05.868Z,79.20
2023-12-21T18:02:07.875Z,79.40
2023-12-21T18:04:09.802Z,79.00
2023-12-21T18:06:11.690Z,79.00
2023-12-21T18:08:15.611Z,78.90
2023-12-21T18:10:17.592Z,79.10
2023-12-21T18:12:19.575Z,79.10
2023-12-21T18:14:25.061Z,78.90
2023-12-21T18:16:26.885Z,79.00
2023-12-21T18:18:28.700Z,79.00
2023-12-21T18:20:30.986Z,79.00
2023-12-21T18:22:32.881Z,79.30
2023-12-21T18:24:38.687Z,79.40
2023-12-21T18:26:40.765Z,79.50
2023-12-21T18:28:42.738Z,79.10
2023-12-21T18:30:45.384Z,79.20
2023-12-21T18:32:47.180Z,79.10
2023-12-21T18:34:50.526Z,79.30
2023-12-21T18:36:52.433Z,79.00
2023-12-21T18:38:54.236Z,79.40
2023-12-21T18:40:56.238Z,79.50
2023-12-21T18:42:58.397Z,79.60
2023-12-21T18:45:00.196Z,79.50
2023-12-21T18:47:02.015Z,79.60
2023-12-21T18:49:04.440Z,79.60
2023-12-21T18:51:06.319Z,79.30
2023-12-21T18:53:08.207Z,79.50
2023-12-21T18:55:10.253Z,79.70
2023-12-21T18:57:12.115Z,79.60
2023-12-21T18:59:15.533Z,79.40
2023-12-21T19:01:17.518Z,79.50
2023-12-21T19:03:19.351Z,79.60
2023-12-21T19:05:22.550Z,79.50
2023-12-21T19:07:24.485Z,79.60
2023-12-21T19:09:26.337Z,79.70
2023-12-21T19:11:29.525Z,80.00
2023-12-21T19:13:34.922Z,80.00
2023-12-21T19:15:37.000Z,80.10
2023-12-21T19:17:38.935Z,79.80
2023-12-21T19:19:40.821Z,79.90
2023-12-21T19:21:49.154Z,79.90
2023-12-21T19:23:50.936Z,80.00
2023-12-21T19:25:52.974Z,80.00
2023-12-21T19:27:54.730Z,80.10
2023-12-21T19:29:56.699Z,80.50
2023-12-21T19:31:58.574Z,81.30
2023-12-21T19:34:00.594Z,81.80
2023-12-21T19:36:03.098Z,82.30
2023-12-21T19:38:04.929Z,84.20
2023-12-21T19:40:07.303Z,85.90
2023-12-21T19:42:10.313Z,87.20
2023-12-21T19:44:12.131Z,88.00
2023-12-21T19:46:14.800Z,89.00
2023-12-21T19:48:16.886Z,88.80
2023-12-21T19:50:18.778Z,88.90
2023-12-21T19:52:20.520Z,90.10
2023-12-21T19:54:22.390Z,90.40
2023-12-21T19:56:24.506Z,91.20
2023-12-21T19:58:27.925Z,91.70
2023-12-21T20:00:29.711Z,91.90
2023-12-21T20:02:31.474Z,91.40
2023-12-21T20:04:33.388Z,91.30
2023-12-21T20:06:35.337Z,91.40
2023-12-21T20:08:37.112Z,91.30
2023-12-21T20:10:39.837Z,91.10
2023-12-21T20:12:42.215Z,90.30
2023-12-21T20:14:44.052Z,90.10
2023-12-21T20:16:46.210Z,90.30
2023-12-21T20:18:50.009Z,90.30
2023-12-21T20:20:52.186Z,90.30
2023-12-21T20:22:57.168Z,90.20
2023-12-21T20:24:59.182Z,90.20
2023-12-21T20:27:00.904Z,90.10
2023-12-21T20:29:02.665Z,90.20
2023-12-21T20:31:04.627Z,90.50
2023-12-21T20:33:10.521Z,90.00
2023-12-21T20:35:13.025Z,89.90
2023-12-21T20:37:14.915Z,89.80
2023-12-21T20:39:16.687Z,89.60
2023-12-21T20:41:18.528Z,89.00
2023-12-21T20:43:20.474Z,88.40
2023-12-21T20:45:22.289Z,88.60
2023-12-21T20:47:24.136Z,88.00
2023-12-21T20:49:26.046Z,88.40
2023-12-21T20:51:27.851Z,88.10
2023-12-21T20:53:29.605Z,87.90
2023-12-21T20:55:32.101Z,87.90
2023-12-21T20:57:33.892Z,88.00
2023-12-21T20:59:37.638Z,87.80
2023-12-21T21:01:41.160Z,87.20
2023-12-21T21:03:43.025Z,86.20
2023-12-21T21:05:44.907Z,86.10
2023-12-21T21:07:47.130Z,85.70
2023-12-21T21:09:49.205Z,84.80
2023-12-21T21:11:50.989Z,84.40
2023-12-21T21:13:53.677Z,84.10
2023-12-21T21:15:55.310Z,84.30
2023-12-21T21:17:57.234Z,84.40
2023-12-21T21:19:59.201Z,85.60
2023-12-21T21:22:01.134Z,86.70
2023-12-21T21:24:04.026Z,87.20
2023-12-21T21:26:07.037Z,86.70
2023-12-21T21:28:08.837Z,87.70
2023-12-21T21:30:11.149Z,87.10
2023-12-21T21:32:32.953Z,85.00
2023-12-21T21:34:36.780Z,82.60
2023-12-21T21:36:43.144Z,81.40
2023-12-21T21:38:44.966Z,81.70
2023-12-21T21:40:46.816Z,81.10
2023-12-21T21:42:48.736Z,80.70
2023-12-21T21:44:50.460Z,79.90
2023-12-21T21:46:52.220Z,79.70
2023-12-21T21:48:54.063Z,79.80
2023-12-21T21:50:56.051Z,79.70
2023-12-21T21:52:57.835Z,79.00
2023-12-21T21:54:59.648Z,79.30
2023-12-21T21:57:01.357Z,79.00
2023-12-21T21:59:04.026Z,79.20
2023-12-21T22:01:06.718Z,79.90
2023-12-21T22:03:11.572Z,79.70
2023-12-21T22:05:13.469Z,79.80
2023-12-21T22:07:15.307Z,79.60
2023-12-21T22:09:17.193Z,79.60
2023-12-21T22:11:20.716Z,79.00
2023-12-21T22:13:22.550Z,79.00
2023-12-21T22:15:24.406Z,78.70
2023-12-21T22:17:26.276Z,78.30
2023-12-21T22:19:28.158Z,77.90
2023-12-21T22:21:33.612Z,76.80
2023-12-21T22:23:36.025Z,76.70
2023-12-21T22:25:38.918Z,76.50
2023-12-21T22:27:40.856Z,76.20
2023-12-21T22:29:43.348Z,75.90
2023-12-21T22:31:45.108Z,76.20
2023-12-21T22:33:47.768Z,76.10
2023-12-21T22:35:49.516Z,76.20
2023-12-21T22:37:51.559Z,76.60
2023-12-21T22:39:54.001Z,77.10
2023-12-21T22:41:55.813Z,76.60
2023-12-21T22:43:57.823Z,76.60
2023-12-21T22:45:59.753Z,76.90
2023-12-21T22:48:01.566Z,77.20
2023-12-21T22:50:04.150Z,77.50
2023-12-21T22:52:06.287Z,78.00
2023-12-21T22:54:09.376Z,79.20
2023-12-21T22:56:12.515Z,80.10
2023-12-21T22:58:14.305Z,79.90
2023-12-21T23:00:25.319Z,80.00
2023-12-21T23:02:27.478Z,80.20
2023-12-21T23:04:29.226Z,80.80
2023-12-21T23:06:30.997Z,80.80
2023-12-21T23:08:33.911Z,79.50
2023-12-21T23:10:36.204Z,79.10
2023-12-21T23:12:39.867Z,79.80
2023-12-21T23:14:42.458Z,80.20
2023-12-21T23:16:44.236Z,80.30
2023-12-21T23:18:46.111Z,80.80
2023-12-21T23:20:48.066Z,81.40
2023-12-21T23:22:50.231Z,81.80
2023-12-21T23:24:52.486Z,82.10
2023-12-21T23:26:54.261Z,82.50
2023-12-21T23:28:56.088Z,82.80
2023-12-21T23:30:58.940Z,81.80
2023-12-21T23:33:00.800Z,82.50
2023-12-21T23:35:13.174Z,83.50
2023-12-21T23:37:19.737Z,85.10
2023-12-21T23:39:22.221Z,86.20
2023-12-21T23:41:24.016Z,87.00
2023-12-21T23:43:25.807Z,88.20
2023-12-21T23:45:27.638Z,89.20
2023-12-21T23:47:29.555Z,89.60
2023-12-21T23:49:33.347Z,90.10
2023-12-21T23:51:38.367Z,91.10
2023-12-21T23:53:40.213Z,91.60
2023-12-21T23:55:42.057Z,91.60
2023-12-21T23:57:43.920Z,91.80
2023-12-21T23:59:45.670Z,92.80
